createdAt,value
2023-04-28T00:02:19.008Z,8.30
2023-04-28T00:04:47.864Z,8.30
2023-04-28T00:07:16.270Z,8.30
2023-04-28T00:09:43.417Z,8.30
2023-04-28T00:12:10.218Z,8.30
2023-04-28T00:14:37.258Z,8.30
2023-04-28T00:17:04.611Z,8.30
2023-04-28T00:19:31.913Z,8.20
2023-04-28T00:21:58.835Z,8.20
2023-04-28T00:24:27.034Z,8.20
2023-04-28T00:26:54.404Z,8.20
2023-04-28T00:29:21.169Z,8.20
2023-04-28T00:31:48.413Z,8.20
2023-04-28T00:34:15.574Z,8.20
2023-04-28T00:36:42.844Z,8.20
2023-04-28T00:39:10.088Z,8.20
2023-04-28T00:41:38.555Z,8.10
2023-04-28T00:44:05.390Z,8.10
2023-04-28T00:46:34.257Z,8.20
2023-04-28T00:49:01.588Z,8.10
2023-04-28T00:51:29.570Z,8.10
2023-04-28T00:53:57.109Z,8.10
2023-04-28T00:56:24.488Z,8.10
2023-04-28T00:58:52.941Z,8.00
2023-04-28T01:01:20.442Z,8.00
2023-04-28T01:03:48.051Z,8.10
2023-04-28T01:06:16.637Z,8.00
2023-04-28T01:08:43.947Z,8.00
2023-04-28T01:11:14.521Z,8.10
2023-04-28T01:13:41.471Z,8.10
2023-04-28T01:16:10.065Z,8.10
2023-04-28T01:18:37.287Z,8.20
2023-04-28T01:21:04.569Z,8.20
2023-04-28T01:23:31.722Z,8.20
2023-04-28T01:26:00.000Z,8.20
2023-04-28T01:28:26.797Z,8.20
2023-04-28T01:30:53.949Z,8.10
2023-04-28T01:33:20.725Z,8.20
2023-04-28T01:35:47.860Z,8.30
2023-04-28T01:38:14.739Z,8.30
2023-04-28T01:40:41.903Z,8.30
2023-04-28T01:43:10.082Z,8.30
2023-04-28T01:45:36.921Z,8.30
2023-04-28T01:48:04.336Z,8.30
2023-04-28T01:50:31.279Z,8.30
2023-04-28T01:52:58.500Z,8.40
2023-04-28T01:55:25.882Z,8.30
2023-04-28T01:57:53.106Z,8.30
2023-04-28T02:00:21.512Z,8.30
2023-04-28T02:02:48.787Z,8.40
2023-04-28T02:05:15.902Z,8.40
2023-04-28T02:07:43.046Z,8.40
2023-04-28T02:10:10.434Z,8.40
2023-04-28T02:12:37.560Z,8.40
2023-04-28T02:15:05.286Z,8.40
2023-04-28T02:17:33.872Z,8.40
2023-04-28T02:20:00.776Z,8.40
2023-04-28T02:22:27.988Z,8.50
2023-04-28T02:24:54.838Z,8.50
2023-04-28T02:27:22.109Z,8.50
2023-04-28T02:29:49.025Z,8.50
2023-04-28T02:32:16.302Z,8.50
2023-04-28T02:34:44.491Z,8.50
2023-04-28T02:37:11.918Z,8.50
2023-04-28T02:39:39.985Z,8.50
2023-04-28T02:42:07.142Z,8.50
2023-04-28T02:44:33.925Z,8.50
2023-04-28T02:47:02.325Z,8.50
2023-04-28T02:49:29.338Z,8.60
2023-04-28T02:51:57.777Z,8.60
2023-04-28T02:54:27.842Z,8.40
2023-04-28T02:56:55.536Z,8.50
2023-04-28T02:59:22.754Z,8.60
2023-04-28T03:01:50.004Z,8.50
2023-04-28T03:04:17.171Z,8.50
2023-04-28T03:06:44.615Z,8.60
2023-04-28T03:09:13.809Z,8.60
2023-04-28T03:11:41.600Z,8.60
2023-04-28T03:14:08.440Z,8.60
2023-04-28T03:16:35.649Z,8.60
2023-04-28T03:19:02.500Z,8.60
2023-04-28T03:21:29.828Z,8.70
2023-04-28T03:23:57.033Z,8.60
2023-04-28T03:26:25.754Z,8.70
2023-04-28T03:28:53.115Z,8.60
2023-04-28T03:31:20.548Z,8.70
2023-04-28T03:33:47.690Z,8.60
2023-04-28T03:36:15.388Z,8.70
2023-04-28T03:38:42.644Z,8.70
2023-04-28T03:41:09.571Z,8.70
2023-04-28T03:43:37.738Z,8.70
2023-04-28T03:46:05.243Z,8.60
2023-04-28T03:48:32.184Z,8.60
2023-04-28T03:50:59.426Z,8.60
2023-04-28T03:53:26.266Z,8.60
2023-04-28T03:55:53.498Z,8.60
2023-04-28T03:58:20.367Z,8.60
2023-04-28T04:00:48.895Z,8.60
2023-04-28T04:03:16.090Z,8.60
2023-04-28T04:05:43.490Z,8.60
2023-04-28T04:08:10.426Z,8.60
2023-04-28T04:10:37.620Z,8.60
2023-04-28T04:13:04.432Z,8.60
2023-04-28T04:15:31.780Z,8.60
2023-04-28T04:18:00.001Z,8.70
2023-04-28T04:20:27.146Z,8.60
2023-04-28T04:22:53.908Z,8.70
2023-04-28T04:25:23.172Z,8.70
2023-04-28T04:27:50.280Z,8.70
2023-04-28T04:30:17.468Z,8.70
2023-04-28T04:32:44.338Z,8.70
2023-04-28T04:35:12.899Z,8.70
2023-04-28T04:37:40.181Z,8.70
2023-04-28T04:40:08.745Z,8.80
2023-04-28T04:42:35.687Z,8.80
2023-04-28T04:45:02.872Z,8.90
2023-04-28T04:47:29.756Z,8.90
2023-04-28T04:49:57.137Z,8.80
2023-04-28T04:52:25.552Z,8.90
2023-04-28T04:54:52.885Z,8.90
2023-04-28T04:57:19.727Z,9.00
2023-04-28T04:59:46.963Z,9.00
2023-04-28T05:02:13.985Z,9.10
2023-04-28T05:04:41.460Z,9.10
2023-04-28T05:07:08.444Z,9.20
2023-04-28T05:09:37.102Z,9.30
2023-04-28T05:12:04.334Z,9.40
2023-04-28T05:14:31.456Z,9.50
2023-04-28T05:16:58.375Z,9.60
2023-04-28T05:19:25.734Z,9.60
2023-04-28T05:21:54.616Z,9.70
2023-04-28T05:24:23.622Z,9.80
2023-04-28T05:26:52.884Z,9.80
2023-04-28T05:29:20.232Z,9.90
2023-04-28T05:31:47.739Z,10.00
2023-04-28T05:34:15.125Z,10.00
2023-04-28T05:36:42.691Z,9.90
2023-04-28T05:39:09.509Z,10.00
2023-04-28T05:41:39.494Z,10.00
2023-04-28T05:44:07.613Z,9.90
2023-04-28T05:46:35.017Z,10.00
2023-04-28T05:49:01.960Z,10.00
2023-04-28T05:51:29.381Z,9.90
2023-04-28T05:53:56.656Z,9.90
2023-04-28T05:56:23.844Z,9.90
2023-04-28T05:58:51.347Z,9.90
2023-04-28T06:01:22.336Z,9.90
2023-04-28T06:03:49.704Z,10.00
2023-04-28T06:06:17.286Z,10.00
2023-04-28T06:08:44.527Z,10.10
2023-04-28T06:11:12.067Z,10.10
2023-04-28T06:13:38.890Z,10.10
2023-04-28T06:16:06.800Z,10.10
2023-04-28T06:18:35.419Z,10.00
2023-04-28T06:21:02.296Z,10.00
2023-04-28T06:23:29.159Z,10.10
2023-04-28T06:25:56.517Z,10.20
2023-04-28T06:28:23.278Z,10.10
2023-04-28T06:30:50.408Z,10.20
2023-04-28T06:33:17.296Z,10.30
2023-04-28T06:35:45.844Z,10.40
2023-04-28T06:38:12.589Z,10.40
2023-04-28T06:40:40.892Z,10.40
2023-04-28T06:43:07.681Z,10.40
2023-04-28T06:45:34.964Z,10.50
2023-04-28T06:48:02.279Z,10.60
2023-04-28T06:50:29.259Z,10.70
2023-04-28T06:52:58.756Z,10.80
2023-04-28T06:55:27.077Z,10.90
2023-04-28T06:57:54.048Z,11.00
2023-04-28T07:00:21.514Z,11.10
2023-04-28T07:02:48.567Z,11.20
2023-04-28T07:05:16.675Z,11.10
2023-04-28T07:07:43.687Z,11.20
2023-04-28T07:10:13.740Z,11.40
2023-04-28T07:12:40.990Z,11.40
2023-04-28T07:15:10.309Z,11.40
2023-04-28T07:17:37.521Z,11.40
2023-04-28T07:20:05.624Z,11.40
2023-04-28T07:22:32.391Z,11.60
2023-04-28T07:24:59.600Z,11.70
2023-04-28T07:27:27.887Z,11.70
2023-04-28T07:29:55.095Z,11.70
2023-04-28T07:32:22.705Z,11.60
2023-04-28T07:34:50.222Z,11.60
2023-04-28T07:37:17.114Z,11.80
2023-04-28T07:39:44.298Z,11.80
2023-04-28T07:42:11.275Z,11.90
2023-04-28T07:44:39.894Z,11.90
2023-04-28T07:47:06.799Z,11.90
2023-04-28T07:49:33.925Z,11.90
2023-04-28T07:52:00.748Z,11.90
2023-04-28T07:54:28.078Z,12.10
2023-04-28T07:56:57.921Z,12.10
2023-04-28T07:59:25.025Z,12.30
2023-04-28T08:01:53.184Z,12.30
2023-04-28T08:04:21.044Z,12.50
2023-04-28T08:06:48.182Z,12.50
2023-04-28T08:09:15.412Z,12.50
2023-04-28T08:11:42.236Z,12.40
2023-04-28T08:14:09.376Z,12.20
2023-04-28T08:16:38.421Z,12.20
2023-04-28T08:19:07.079Z,12.20
2023-04-28T08:21:34.241Z,12.40
2023-04-28T08:24:02.083Z,12.50
2023-04-28T08:26:29.224Z,12.60
2023-04-28T08:28:56.036Z,12.70
2023-04-28T08:31:23.849Z,12.70
2023-04-28T08:33:51.550Z,12.70
2023-04-28T08:36:19.688Z,12.90
2023-04-28T08:38:47.571Z,13.10
2023-04-28T08:41:16.619Z,13.20
2023-04-28T08:43:43.837Z,13.20
2023-04-28T08:46:11.357Z,13.30
2023-04-28T08:48:41.494Z,13.40
2023-04-28T08:51:08.956Z,13.20
2023-04-28T08:54:03.974Z,13.30
2023-04-28T08:56:31.758Z,13.40
2023-04-28T08:59:03.656Z,13.60
2023-04-28T09:01:30.693Z,13.70
2023-04-28T09:03:58.135Z,13.70
2023-04-28T09:06:25.209Z,13.50
2023-04-28T09:08:53.810Z,13.50
2023-04-28T09:11:21.021Z,13.60
2023-04-28T09:13:48.307Z,13.70
2023-04-28T09:16:15.202Z,13.60
2023-04-28T09:18:57.347Z,13.50
2023-04-28T09:21:24.175Z,13.70
2023-04-28T09:23:51.438Z,13.70
2023-04-28T09:26:19.595Z,13.70
2023-04-28T09:28:46.432Z,13.90
2023-04-28T09:31:24.140Z,14.10
2023-04-28T09:33:58.070Z,14.00
2023-04-28T09:36:27.396Z,14.00
2023-04-28T09:38:59.250Z,13.90
2023-04-28T09:41:38.251Z,14.00
2023-04-28T09:44:23.985Z,14.00
2023-04-28T09:46:50.843Z,14.10
2023-04-28T09:49:18.218Z,14.30
2023-04-28T09:51:45.055Z,14.30
2023-04-28T09:54:13.452Z,14.20
2023-04-28T09:56:44.082Z,14.10
2023-04-28T09:59:11.495Z,14.10
2023-04-28T10:01:40.603Z,14.10
2023-04-28T10:04:09.263Z,14.10
2023-04-28T10:06:36.855Z,14.30
2023-04-28T10:09:05.441Z,14.20
2023-04-28T10:11:33.922Z,14.40
2023-04-28T10:14:02.692Z,14.60
2023-04-28T10:16:32.659Z,14.50
2023-04-28T10:19:00.787Z,14.40
2023-04-28T10:21:29.914Z,14.30
2023-04-28T10:24:13.756Z,14.40
2023-04-28T10:27:04.462Z,14.50
2023-04-28T10:29:34.222Z,14.30
2023-04-28T10:32:17.936Z,14.10
2023-04-28T10:34:45.142Z,14.20
2023-04-28T10:37:14.987Z,14.30
2023-04-28T10:39:42.077Z,14.30
2023-04-28T10:42:42.924Z,14.20
2023-04-28T10:45:11.306Z,14.10
2023-04-28T10:48:06.744Z,14.20
2023-04-28T10:50:39.137Z,14.10
2023-04-28T10:53:06.327Z,14.20
2023-04-28T10:55:37.399Z,14.20
2023-04-28T10:58:33.186Z,14.20
2023-04-28T11:01:27.756Z,14.20
2023-04-28T11:04:05.289Z,14.30
2023-04-28T11:06:34.595Z,14.60
2023-04-28T11:09:02.976Z,14.90
2023-04-28T11:11:30.493Z,14.90
2023-04-28T11:14:31.904Z,15.10
2023-04-28T11:17:02.946Z,15.00
2023-04-28T11:19:31.053Z,14.90
2023-04-28T11:21:59.105Z,14.60
2023-04-28T11:24:29.164Z,14.40
2023-04-28T11:26:56.549Z,14.20
2023-04-28T11:29:31.774Z,14.20
2023-04-28T11:32:00.191Z,14.20
2023-04-28T11:34:27.713Z,14.20
2023-04-28T11:36:55.032Z,14.30
2023-04-28T11:39:28.629Z,14.30
2023-04-28T11:41:56.444Z,14.40
2023-04-28T11:44:25.151Z,14.50
2023-04-28T11:46:57.243Z,14.50
2023-04-28T11:49:27.206Z,14.50
2023-04-28T11:51:54.724Z,14.40
2023-04-28T11:54:23.473Z,14.40
2023-04-28T11:56:50.746Z,14.30
2023-04-28T11:59:18.374Z,14.20
2023-04-28T12:01:47.887Z,14.10
2023-04-28T12:04:26.556Z,14.10
2023-04-28T12:07:02.008Z,14.20
2023-04-28T12:09:29.892Z,14.40
2023-04-28T12:11:58.072Z,14.50
2023-04-28T12:14:25.823Z,14.50
2023-04-28T12:16:53.089Z,14.60
2023-04-28T12:19:20.717Z,14.60
2023-04-28T12:22:03.999Z,14.60
2023-04-28T12:24:32.434Z,14.60
2023-04-28T12:27:16.246Z,14.50
2023-04-28T12:29:46.556Z,14.50
2023-04-28T12:32:14.116Z,14.40
2023-04-28T12:34:42.481Z,14.50
2023-04-28T12:37:12.200Z,14.50
2023-04-28T12:39:42.457Z,14.60
2023-04-28T12:42:09.527Z,14.60
2023-04-28T12:44:37.786Z,14.60
2023-04-28T12:47:07.213Z,14.60
2023-04-28T12:49:35.377Z,14.60
2023-04-28T12:52:02.605Z,14.60
2023-04-28T12:54:31.248Z,14.50
2023-04-28T12:56:58.152Z,14.50
2023-04-28T12:59:25.472Z,14.40
2023-04-28T13:01:52.435Z,14.40
2023-04-28T13:04:19.980Z,14.40
2023-04-28T13:06:47.364Z,14.40
2023-04-28T13:09:15.801Z,14.50
2023-04-28T13:11:44.141Z,14.50
2023-04-28T13:14:11.474Z,14.60
2023-04-28T13:16:39.350Z,14.50
2023-04-28T13:19:11.024Z,14.50
2023-04-28T13:21:39.391Z,14.50
2023-04-28T13:24:07.140Z,14.50
2023-04-28T13:26:34.160Z,14.60
2023-04-28T13:29:04.045Z,14.70
2023-04-28T13:31:31.473Z,14.90
2023-04-28T13:34:01.053Z,14.90
2023-04-28T13:36:29.344Z,15.00
2023-04-28T13:38:56.730Z,15.00
2023-04-28T13:41:23.626Z,15.00
2023-04-28T13:43:50.732Z,15.20
2023-04-28T13:46:19.248Z,15.30
2023-04-28T13:48:46.534Z,15.30
2023-04-28T13:51:13.480Z,15.30
2023-04-28T13:53:40.767Z,15.30
2023-04-28T13:56:08.266Z,15.20
2023-04-28T13:58:35.877Z,15.30
2023-04-28T14:01:04.339Z,15.30
2023-04-28T14:03:33.031Z,15.30
2023-04-28T14:06:00.359Z,15.30
2023-04-28T14:08:28.012Z,15.40
2023-04-28T14:10:55.255Z,15.40
2023-04-28T14:13:22.322Z,15.60
2023-04-28T14:15:58.464Z,15.40
2023-04-28T14:18:26.331Z,15.30
2023-04-28T14:20:55.030Z,15.30
2023-04-28T14:23:22.530Z,15.30
2023-04-28T14:25:50.524Z,15.30
2023-04-28T14:28:17.410Z,15.30
2023-04-28T14:30:47.861Z,15.30
2023-04-28T14:33:15.204Z,15.30
2023-04-28T14:35:42.522Z,15.10
2023-04-28T14:38:10.858Z,14.90
2023-04-28T14:40:38.088Z,14.80
2023-04-28T14:43:04.864Z,14.80
2023-04-28T14:45:31.983Z,14.60
2023-04-28T14:47:59.060Z,14.60
2023-04-28T14:50:25.899Z,14.50
2023-04-28T14:52:52.662Z,14.40
2023-04-28T14:55:21.387Z,14.30
2023-04-28T14:57:48.303Z,14.40
2023-04-28T15:00:16.662Z,14.20
2023-04-28T15:02:43.576Z,14.10
2023-04-28T15:05:11.796Z,14.10
2023-04-28T15:07:38.675Z,14.00
2023-04-28T15:10:10.076Z,14.00
2023-04-28T15:12:43.564Z,14.00
2023-04-28T15:15:11.758Z,14.10
2023-04-28T15:17:38.845Z,14.10
2023-04-28T15:20:11.129Z,14.00
2023-04-28T15:22:42.290Z,14.00
2023-04-28T15:25:10.384Z,14.00
2023-04-28T15:27:38.692Z,14.00
2023-04-28T15:30:08.077Z,13.90
2023-04-28T15:32:35.047Z,13.80
2023-04-28T15:35:03.149Z,13.80
2023-04-28T15:37:43.013Z,13.90
2023-04-28T15:40:12.337Z,13.90
2023-04-28T15:42:42.620Z,14.00
2023-04-28T15:45:13.295Z,13.80
2023-04-28T15:47:40.614Z,13.80
2023-04-28T15:50:09.512Z,13.60
2023-04-28T15:52:38.423Z,13.60
2023-04-28T15:55:07.224Z,13.60
2023-04-28T15:57:34.092Z,13.60
2023-04-28T16:00:06.512Z,13.50
2023-04-28T16:02:33.728Z,13.50
2023-04-28T16:05:02.754Z,13.40
2023-04-28T16:07:31.501Z,13.40
2023-04-28T16:09:58.851Z,13.50
2023-04-28T16:12:25.786Z,13.50
2023-04-28T16:14:53.199Z,13.50
2023-04-28T16:17:22.882Z,13.50
2023-04-28T16:19:50.565Z,13.50
2023-04-28T16:22:17.350Z,13.50
2023-04-28T16:24:45.633Z,13.50
2023-04-28T16:27:12.785Z,13.40
2023-04-28T16:29:39.837Z,13.30
2023-04-28T16:32:06.712Z,13.40
2023-04-28T16:34:34.930Z,13.40
2023-04-28T16:37:02.620Z,13.50
2023-04-28T16:39:31.406Z,13.50
2023-04-28T16:42:00.823Z,13.50
2023-04-28T16:44:28.586Z,13.50
2023-04-28T16:46:55.970Z,13.60
2023-04-28T16:49:23.372Z,13.60
2023-04-28T16:51:58.763Z,13.70
2023-04-28T16:54:25.831Z,13.80
2023-04-28T16:56:52.686Z,13.60
2023-04-28T16:59:20.106Z,13.60
2023-04-28T17:01:47.005Z,13.50
2023-04-28T17:04:14.883Z,13.50
2023-04-28T17:06:41.879Z,13.50
2023-04-28T17:09:10.428Z,13.50
2023-04-28T17:11:40.269Z,13.40
2023-04-28T17:14:07.506Z,13.30
2023-04-28T17:16:34.736Z,13.10
2023-04-28T17:19:01.938Z,13.00
2023-04-28T17:21:29.524Z,13.00
2023-04-28T17:23:59.546Z,12.90
2023-04-28T17:26:30.512Z,12.90
2023-04-28T17:29:01.155Z,12.80
2023-04-28T17:31:29.048Z,12.90
2023-04-28T17:33:57.592Z,12.90
2023-04-28T17:36:27.003Z,12.90
2023-04-28T17:38:54.002Z,12.90
2023-04-28T17:41:21.549Z,12.80
2023-04-28T17:43:51.438Z,12.70
2023-04-28T17:46:19.001Z,12.60
2023-04-28T17:48:46.163Z,12.50
2023-04-28T17:51:13.319Z,12.40
2023-04-28T17:53:40.190Z,12.40
2023-04-28T17:56:08.478Z,12.30
2023-04-28T17:58:36.281Z,12.30
2023-04-28T18:01:06.001Z,12.30
2023-04-28T18:03:34.756Z,12.30
2023-04-28T18:06:02.622Z,12.30
2023-04-28T18:08:29.591Z,12.40
2023-04-28T18:10:58.320Z,12.40
2023-04-28T18:13:25.339Z,12.40
2023-04-28T18:15:52.964Z,12.40
2023-04-28T18:18:21.173Z,12.40
2023-04-28T18:20:48.551Z,12.40
2023-04-28T18:23:15.494Z,12.30
2023-04-28T18:25:44.042Z,12.40
2023-04-28T18:28:10.968Z,12.30
2023-04-28T18:30:38.139Z,12.30
2023-04-28T18:33:05.509Z,12.30
2023-04-28T18:35:34.289Z,12.30
2023-04-28T18:38:01.077Z,12.30
2023-04-28T18:40:32.621Z,12.20
2023-04-28T18:43:00.499Z,12.20
2023-04-28T18:45:31.338Z,12.20
2023-04-28T18:47:59.067Z,12.20
2023-04-28T18:50:26.731Z,12.20
2023-04-28T18:52:54.887Z,12.20
2023-04-28T18:55:22.225Z,12.20
2023-04-28T18:57:49.247Z,12.20
2023-04-28T19:00:16.387Z,12.10
2023-04-28T19:02:44.471Z,12.10
2023-04-28T19:05:12.179Z,12.10
2023-04-28T19:07:39.983Z,12.10
2023-04-28T19:10:09.288Z,12.10
2023-04-28T19:12:36.185Z,12.10
2023-04-28T19:15:03.029Z,12.10
2023-04-28T19:17:30.306Z,12.10
2023-04-28T19:19:57.853Z,12.00
2023-04-28T19:22:36.449Z,12.00
2023-04-28T19:25:04.761Z,12.00
2023-04-28T19:27:34.734Z,12.00
2023-04-28T19:30:02.305Z,12.00
2023-04-28T19:32:29.553Z,12.00
2023-04-28T19:34:56.653Z,12.00
2023-04-28T19:37:23.645Z,12.00
2023-04-28T19:39:51.402Z,12.00
2023-04-28T19:42:18.746Z,12.00
2023-04-28T19:44:48.798Z,12.00
2023-04-28T19:47:23.839Z,12.00
2023-04-28T19:49:51.882Z,12.00
2023-04-28T19:52:20.918Z,12.00
2023-04-28T19:54:48.638Z,12.00
2023-04-28T19:57:16.320Z,12.00
2023-04-28T19:59:43.527Z,11.90
2023-04-28T20:02:11.634Z,11.90
2023-04-28T20:04:40.063Z,11.90
2023-04-28T20:07:08.431Z,11.90
2023-04-28T20:09:35.917Z,11.80
2023-04-28T20:12:04.267Z,11.90
2023-04-28T20:14:31.761Z,11.90
2023-04-28T20:16:58.978Z,11.90
2023-04-28T20:19:27.613Z,11.90
2023-04-28T20:21:54.480Z,11.90
2023-04-28T20:24:21.909Z,11.90
2023-04-28T20:26:50.588Z,12.00
2023-04-28T20:29:18.203Z,11.80
2023-04-28T20:31:45.113Z,11.80
2023-04-28T20:34:13.327Z,11.80
2023-04-28T20:36:42.848Z,11.70
2023-04-28T20:39:11.308Z,11.80
2023-04-28T20:41:40.919Z,11.80
2023-04-28T20:44:08.764Z,11.80
2023-04-28T20:46:36.042Z,11.80
2023-04-28T20:49:04.617Z,11.80
2023-04-28T20:51:33.941Z,11.70
2023-04-28T20:54:04.235Z,11.60
2023-04-28T20:56:31.053Z,11.70
2023-04-28T20:58:58.225Z,11.70
2023-04-28T21:01:25.449Z,11.70
2023-04-28T21:03:52.860Z,11.70
2023-04-28T21:06:19.809Z,11.70
2023-04-28T21:08:47.007Z,11.80
2023-04-28T21:11:16.022Z,11.80
2023-04-28T21:13:43.659Z,11.80
2023-04-28T21:16:17.630Z,11.80
2023-04-28T21:18:47.309Z,11.80
2023-04-28T21:21:14.244Z,11.80
2023-04-28T21:23:41.500Z,11.80
2023-04-28T21:26:08.700Z,11.80
2023-04-28T21:28:37.113Z,11.80
2023-04-28T21:31:04.908Z,11.70
2023-04-28T21:33:32.586Z,11.70
2023-04-28T21:36:05.491Z,11.70
2023-04-28T21:38:33.290Z,11.70
2023-04-28T21:41:00.367Z,11.70
2023-04-28T21:43:27.170Z,11.80
2023-04-28T21:45:55.331Z,11.70
2023-04-28T21:48:22.761Z,11.80
2023-04-28T21:50:49.732Z,11.80
2023-04-28T21:53:17.037Z,11.90
2023-04-28T21:55:44.463Z,11.80
2023-04-28T21:58:12.159Z,11.90
2023-04-28T22:00:41.706Z,11.90
2023-04-28T22:03:10.745Z,11.90
2023-04-28T22:05:39.344Z,12.00
2023-04-28T22:08:06.563Z,12.00
2023-04-28T22:10:34.387Z,12.00
2023-04-28T22:13:01.755Z,12.10
2023-04-28T22:15:28.760Z,12.10
2023-04-28T22:17:55.948Z,12.20
2023-04-28T22:20:24.140Z,12.20
2023-04-28T22:22:51.420Z,12.20
2023-04-28T22:25:18.406Z,12.20
2023-04-28T22:27:45.916Z,12.30
2023-04-28T22:30:13.581Z,12.40
2023-04-28T22:32:44.852Z,12.50
2023-04-28T22:35:14.679Z,12.70
2023-04-28T22:37:43.825Z,12.80
2023-04-28T22:40:11.158Z,12.90
2023-04-28T22:42:39.282Z,12.90
2023-04-28T22:45:06.978Z,12.90
2023-04-28T22:47:34.898Z,13.00
2023-04-28T22:50:06.289Z,13.00
2023-04-28T22:52:33.539Z,12.90
2023-04-28T22:55:01.954Z,12.80
2023-04-28T22:57:29.216Z,12.80
2023-04-28T22:59:56.146Z,12.80
2023-04-28T23:02:23.432Z,12.80
2023-04-28T23:04:50.771Z,12.80
2023-04-28T23:07:18.037Z,12.80
2023-04-28T23:09:44.972Z,12.80
2023-04-28T23:12:13.483Z,12.80
2023-04-28T23:14:40.378Z,12.80
2023-04-28T23:17:07.597Z,12.80
2023-04-28T23:19:39.036Z,12.80
2023-04-28T23:22:07.516Z,12.80
2023-04-28T23:24:36.600Z,12.80
2023-04-28T23:27:04.006Z,12.80
2023-04-28T23:29:32.447Z,12.80
2023-04-28T23:31:59.450Z,12.80
2023-04-28T23:34:26.993Z,12.90
2023-04-28T23:36:54.081Z,12.80
2023-04-28T23:39:20.832Z,12.80
2023-04-28T23:41:47.993Z,12.80
2023-04-28T23:44:14.910Z,12.90
2023-04-28T23:46:43.587Z,12.80
2023-04-28T23:49:10.348Z,12.80
2023-04-28T23:51:37.206Z,12.80
2023-04-28T23:54:04.101Z,12.80
2023-04-28T23:56:32.106Z,12.90
2023-04-28T23:58:58.937Z,12.90
